sensor_id;sensor_type;location;lat;lon;timestamp;P1;durP1;ratioP1;P2;durP2;ratioP2
4583;SDS011;2304;47.606;12.186;2023-06-14T00:04:39;7.50;;;5.13;;
4583;SDS011;2304;47.606;12.186;2023-06-14T00:09:41;14.40;;;4.87;;
4583;SDS011;2304;47.606;12.186;2023-06-14T00:14:44;13.10;;;4.43;;
4583;SDS011;2304;47.606;12.186;2023-06-14T00:19:47;13.73;;;8.50;;
4583;SDS011;2304;47.606;12.186;2023-06-14T00:24:49;10.20;;;6.80;;
4583;SDS011;2304;47.606;12.186;2023-06-14T00:29:52;11.60;;;7.40;;
4583;SDS011;2304;47.606;12.186;2023-06-14T00:34:54;9.63;;;6.40;;
4583;SDS011;2304;47.606;12.186;2023-06-14T00:39:56;7.23;;;5.37;;
4583;SDS011;2304;47.606;12.186;2023-06-14T00:44:59;8.70;;;5.70;;
4583;SDS011;2304;47.606;12.186;2023-06-14T00:50:01;8.20;;;5.27;;
4583;SDS011;2304;47.606;12.186;2023-06-14T00:55:04;8.10;;;4.53;;
4583;SDS011;2304;47.606;12.186;2023-06-14T01:00:09;8.07;;;4.60;;
4583;SDS011;2304;47.606;12.186;2023-06-14T01:05:12;6.03;;;3.73;;
4583;SDS011;2304;47.606;12.186;2023-06-14T01:10:21;6.67;;;4.40;;
4583;SDS011;2304;47.606;12.186;2023-06-14T01:15:34;9.40;;;4.00;;
4583;SDS011;2304;47.606;12.186;2023-06-14T01:20:36;6.00;;;4.10;;
4583;SDS011;2304;47.606;12.186;2023-06-14T01:25:39;8.23;;;3.87;;
4583;SDS011;2304;47.606;12.186;2023-06-14T01:30:45;5.63;;;3.93;;
4583;SDS011;2304;47.606;12.186;2023-06-14T01:35:49;7.30;;;4.87;;
4583;SDS011;2304;47.606;12.186;2023-06-14T01:40:54;8.10;;;4.27;;
4583;SDS011;2304;47.606;12.186;2023-06-14T01:45:58;8.17;;;4.70;;
4583;SDS011;2304;47.606;12.186;2023-06-14T01:51:01;6.43;;;4.00;;
4583;SDS011;2304;47.606;12.186;2023-06-14T01:56:04;8.77;;;4.20;;
4583;SDS011;2304;47.606;12.186;2023-06-14T02:01:06;5.73;;;4.17;;
4583;SDS011;2304;47.606;12.186;2023-06-14T02:06:08;6.30;;;4.10;;
4583;SDS011;2304;47.606;12.186;2023-06-14T02:11:12;6.07;;;3.73;;
4583;SDS011;2304;47.606;12.186;2023-06-14T02:16:13;7.53;;;4.03;;
4583;SDS011;2304;47.606;12.186;2023-06-14T02:21:17;5.77;;;3.80;;
4583;SDS011;2304;47.606;12.186;2023-06-14T02:26:20;8.37;;;4.23;;
4583;SDS011;2304;47.606;12.186;2023-06-14T02:31:22;5.23;;;3.90;;
4583;SDS011;2304;47.606;12.186;2023-06-14T02:36:24;6.00;;;3.90;;
4583;SDS011;2304;47.606;12.186;2023-06-14T02:41:27;8.67;;;4.97;;
4583;SDS011;2304;47.606;12.186;2023-06-14T02:46:29;5.73;;;4.37;;
4583;SDS011;2304;47.606;12.186;2023-06-14T02:51:31;7.57;;;4.33;;
4583;SDS011;2304;47.606;12.186;2023-06-14T02:56:34;7.20;;;4.10;;
4583;SDS011;2304;47.606;12.186;2023-06-14T03:01:36;6.50;;;4.30;;
4583;SDS011;2304;47.606;12.186;2023-06-14T03:06:39;7.50;;;4.27;;
4583;SDS011;2304;47.606;12.186;2023-06-14T03:11:42;9.93;;;4.07;;
4583;SDS011;2304;47.606;12.186;2023-06-14T03:16:44;5.80;;;4.47;;
4583;SDS011;2304;47.606;12.186;2023-06-14T03:21:46;7.47;;;4.63;;
4583;SDS011;2304;47.606;12.186;2023-06-14T03:26:49;5.83;;;4.63;;
4583;SDS011;2304;47.606;12.186;2023-06-14T03:31:57;5.83;;;4.30;;
4583;SDS011;2304;47.606;12.186;2023-06-14T03:37:00;7.80;;;5.47;;
4583;SDS011;2304;47.606;12.186;2023-06-14T03:42:03;6.80;;;5.27;;
4583;SDS011;2304;47.606;12.186;2023-06-14T03:47:06;7.00;;;4.50;;
4583;SDS011;2304;47.606;12.186;2023-06-14T03:52:09;7.63;;;4.20;;
4583;SDS011;2304;47.606;12.186;2023-06-14T03:57:12;5.80;;;4.90;;
4583;SDS011;2304;47.606;12.186;2023-06-14T04:02:14;7.20;;;4.37;;
4583;SDS011;2304;47.606;12.186;2023-06-14T04:07:16;7.00;;;4.83;;
4583;SDS011;2304;47.606;12.186;2023-06-14T04:12:20;8.40;;;4.83;;
4583;SDS011;2304;47.606;12.186;2023-06-14T04:17:22;7.43;;;4.70;;
4583;SDS011;2304;47.606;12.186;2023-06-14T04:22:24;7.93;;;4.70;;
4583;SDS011;2304;47.606;12.186;2023-06-14T04:27:29;9.97;;;5.27;;
4583;SDS011;2304;47.606;12.186;2023-06-14T04:32:35;6.37;;;5.07;;
4583;SDS011;2304;47.606;12.186;2023-06-14T04:37:38;7.80;;;5.17;;
4583;SDS011;2304;47.606;12.186;2023-06-14T04:42:42;10.73;;;5.77;;
4583;SDS011;2304;47.606;12.186;2023-06-14T04:47:44;7.23;;;4.63;;
4583;SDS011;2304;47.606;12.186;2023-06-14T04:52:46;9.40;;;5.27;;
4583;SDS011;2304;47.606;12.186;2023-06-14T04:57:52;6.50;;;4.97;;
4583;SDS011;2304;47.606;12.186;2023-06-14T05:02:54;8.17;;;5.20;;
4583;SDS011;2304;47.606;12.186;2023-06-14T05:07:57;8.90;;;5.47;;
4583;SDS011;2304;47.606;12.186;2023-06-14T05:13:00;8.93;;;5.63;;
4583;SDS011;2304;47.606;12.186;2023-06-14T05:18:02;9.90;;;5.10;;
4583;SDS011;2304;47.606;12.186;2023-06-14T05:23:04;12.10;;;5.40;;
4583;SDS011;2304;47.606;12.186;2023-06-14T05:28:07;9.00;;;4.90;;
4583;SDS011;2304;47.606;12.186;2023-06-14T05:33:08;9.87;;;5.83;;
4583;SDS011;2304;47.606;12.186;2023-06-14T05:38:10;8.73;;;5.57;;
4583;SDS011;2304;47.606;12.186;2023-06-14T05:43:13;14.60;;;5.47;;
4583;SDS011;2304;47.606;12.186;2023-06-14T05:48:15;12.17;;;5.73;;
4583;SDS011;2304;47.606;12.186;2023-06-14T05:53:17;7.87;;;5.27;;
4583;SDS011;2304;47.606;12.186;2023-06-14T05:58:20;10.17;;;4.93;;
4583;SDS011;2304;47.606;12.186;2023-06-14T06:03:22;7.50;;;5.57;;
4583;SDS011;2304;47.606;12.186;2023-06-14T06:08:24;14.60;;;5.30;;
4583;SDS011;2304;47.606;12.186;2023-06-14T06:13:28;11.07;;;4.27;;
4583;SDS011;2304;47.606;12.186;2023-06-14T06:18:30;10.37;;;4.53;;
4583;SDS011;2304;47.606;12.186;2023-06-14T06:23:31;10.40;;;5.33;;
4583;SDS011;2304;47.606;12.186;2023-06-14T06:28:35;8.27;;;4.87;;
4583;SDS011;2304;47.606;12.186;2023-06-14T06:33:37;8.60;;;5.10;;
4583;SDS011;2304;47.606;12.186;2023-06-14T06:38:39;7.20;;;4.77;;
4583;SDS011;2304;47.606;12.186;2023-06-14T06:43:43;5.70;;;4.23;;
4583;SDS011;2304;47.606;12.186;2023-06-14T06:48:45;7.93;;;4.83;;
4583;SDS011;2304;47.606;12.186;2023-06-14T06:53:51;9.33;;;4.60;;
4583;SDS011;2304;47.606;12.186;2023-06-14T06:58:55;6.60;;;4.63;;
4583;SDS011;2304;47.606;12.186;2023-06-14T07:03:57;5.93;;;4.20;;
4583;SDS011;2304;47.606;12.186;2023-06-14T07:08:59;7.50;;;4.20;;
4583;SDS011;2304;47.606;12.186;2023-06-14T07:14:02;6.77;;;4.00;;
4583;SDS011;2304;47.606;12.186;2023-06-14T07:19:04;5.67;;;4.30;;
4583;SDS011;2304;47.606;12.186;2023-06-14T07:24:06;5.67;;;4.17;;
4583;SDS011;2304;47.606;12.186;2023-06-14T07:29:10;6.90;;;4.47;;
4583;SDS011;2304;47.606;12.186;2023-06-14T07:34:12;5.37;;;4.10;;
4583;SDS011;2304;47.606;12.186;2023-06-14T07:39:13;5.27;;;4.37;;
4583;SDS011;2304;47.606;12.186;2023-06-14T07:44:17;6.93;;;4.40;;
4583;SDS011;2304;47.606;12.186;2023-06-14T07:49:19;6.47;;;4.50;;
4583;SDS011;2304;47.606;12.186;2023-06-14T07:54:21;7.00;;;4.23;;
4583;SDS011;2304;47.606;12.186;2023-06-14T07:59:26;9.20;;;4.57;;
4583;SDS011;2304;47.606;12.186;2023-06-14T08:04:28;6.50;;;4.40;;
4583;SDS011;2304;47.606;12.186;2023-06-14T08:09:31;7.40;;;4.70;;
4583;SDS011;2304;47.606;12.186;2023-06-14T08:14:34;5.70;;;4.30;;
4583;SDS011;2304;47.606;12.186;2023-06-14T08:19:36;5.10;;;3.90;;
4583;SDS011;2304;47.606;12.186;2023-06-14T08:24:38;4.87;;;3.90;;
4583;SDS011;2304;47.606;12.186;2023-06-14T08:29:41;5.83;;;4.27;;
4583;SDS011;2304;47.606;12.186;2023-06-14T08:34:43;4.70;;;3.70;;
4583;SDS011;2304;47.606;12.186;2023-06-14T08:39:45;6.20;;;4.20;;
4583;SDS011;2304;47.606;12.186;2023-06-14T08:44:49;6.90;;;3.73;;
4583;SDS011;2304;47.606;12.186;2023-06-14T08:49:51;5.93;;;4.27;;
4583;SDS011;2304;47.606;12.186;2023-06-14T08:54:55;6.60;;;4.33;;
4583;SDS011;2304;47.606;12.186;2023-06-14T08:59:58;9.20;;;4.60;;
4583;SDS011;2304;47.606;12.186;2023-06-14T09:05:10;11.27;;;4.43;;
4583;SDS011;2304;47.606;12.186;2023-06-14T09:10:14;9.33;;;4.40;;
4583;SDS011;2304;47.606;12.186;2023-06-14T09:15:18;7.80;;;4.70;;
4583;SDS011;2304;47.606;12.186;2023-06-14T09:20:20;5.57;;;4.50;;
4583;SDS011;2304;47.606;12.186;2023-06-14T09:25:25;7.10;;;4.60;;
4583;SDS011;2304;47.606;12.186;2023-06-14T09:30:28;9.97;;;4.53;;
4583;SDS011;2304;47.606;12.186;2023-06-14T09:35:30;9.87;;;4.13;;
4583;SDS011;2304;47.606;12.186;2023-06-14T09:40:33;4.70;;;3.43;;
4583;SDS011;2304;47.606;12.186;2023-06-14T09:45:39;9.00;;;3.90;;
4583;SDS011;2304;47.606;12.186;2023-06-14T09:50:41;6.00;;;3.97;;
4583;SDS011;2304;47.606;12.186;2023-06-14T09:55:43;6.50;;;3.67;;
4583;SDS011;2304;47.606;12.186;2023-06-14T10:00:47;7.93;;;4.30;;
4583;SDS011;2304;47.606;12.186;2023-06-14T10:05:51;19.77;;;3.87;;
4583;SDS011;2304;47.606;12.186;2023-06-14T10:10:55;8.90;;;3.87;;
4583;SDS011;2304;47.606;12.186;2023-06-14T10:16:00;5.87;;;3.83;;
4583;SDS011;2304;47.606;12.186;2023-06-14T10:21:21;7.10;;;4.20;;
4583;SDS011;2304;47.606;12.186;2023-06-14T10:26:29;4.83;;;3.97;;
4583;SDS011;2304;47.606;12.186;2023-06-14T10:31:41;5.30;;;3.73;;
4583;SDS011;2304;47.606;12.186;2023-06-14T10:36:44;7.67;;;3.97;;
4583;SDS011;2304;47.606;12.186;2023-06-14T10:41:52;7.30;;;3.70;;
4583;SDS011;2304;47.606;12.186;2023-06-14T10:46:58;5.57;;;3.63;;
4583;SDS011;2304;47.606;12.186;2023-06-14T10:52:02;7.73;;;3.87;;
4583;SDS011;2304;47.606;12.186;2023-06-14T10:57:06;8.07;;;3.60;;
4583;SDS011;2304;47.606;12.186;2023-06-14T11:02:15;6.00;;;3.63;;
4583;SDS011;2304;47.606;12.186;2023-06-14T11:07:42;7.83;;;4.50;;
4583;SDS011;2304;47.606;12.186;2023-06-14T11:12:53;6.47;;;3.77;;
4583;SDS011;2304;47.606;12.186;2023-06-14T11:17:58;6.77;;;4.20;;
4583;SDS011;2304;47.606;12.186;2023-06-14T11:23:03;5.30;;;4.20;;
4583;SDS011;2304;47.606;12.186;2023-06-14T11:28:05;4.80;;;3.80;;
4583;SDS011;2304;47.606;12.186;2023-06-14T11:33:10;5.30;;;3.60;;
4583;SDS011;2304;47.606;12.186;2023-06-14T11:38:12;4.73;;;3.70;;
4583;SDS011;2304;47.606;12.186;2023-06-14T11:43:14;6.30;;;4.00;;
4583;SDS011;2304;47.606;12.186;2023-06-14T11:48:18;5.80;;;4.10;;
4583;SDS011;2304;47.606;12.186;2023-06-14T11:53:20;7.73;;;4.00;;
4583;SDS011;2304;47.606;12.186;2023-06-14T11:58:22;6.10;;;4.20;;
4583;SDS011;2304;47.606;12.186;2023-06-14T12:03:25;7.10;;;4.20;;
4583;SDS011;2304;47.606;12.186;2023-06-14T12:08:32;5.90;;;4.20;;
4583;SDS011;2304;47.606;12.186;2023-06-14T12:13:39;6.10;;;4.60;;
4583;SDS011;2304;47.606;12.186;2023-06-14T12:18:42;5.60;;;4.37;;
4583;SDS011;2304;47.606;12.186;2023-06-14T12:23:45;4.90;;;3.87;;
4583;SDS011;2304;47.606;12.186;2023-06-14T12:28:48;6.07;;;4.33;;
4583;SDS011;2304;47.606;12.186;2023-06-14T12:33:51;7.13;;;4.03;;
4583;SDS011;2304;47.606;12.186;2023-06-14T12:38:53;7.73;;;3.80;;
4583;SDS011;2304;47.606;12.186;2023-06-14T12:43:55;6.07;;;4.13;;
4583;SDS011;2304;47.606;12.186;2023-06-14T12:49:01;7.70;;;4.30;;
4583;SDS011;2304;47.606;12.186;2023-06-14T12:54:02;4.00;;;3.53;;
4583;SDS011;2304;47.606;12.186;2023-06-14T12:59:05;4.80;;;3.87;;
4583;SDS011;2304;47.606;12.186;2023-06-14T13:04:08;4.70;;;3.93;;
4583;SDS011;2304;47.606;12.186;2023-06-14T13:09:10;8.07;;;4.40;;
4583;SDS011;2304;47.606;12.186;2023-06-14T13:14:13;5.83;;;3.80;;
4583;SDS011;2304;47.606;12.186;2023-06-14T13:19:16;5.77;;;3.70;;
4583;SDS011;2304;47.606;12.186;2023-06-14T13:24:18;5.17;;;3.70;;
4583;SDS011;2304;47.606;12.186;2023-06-14T13:29:20;6.17;;;3.87;;
4583;SDS011;2304;47.606;12.186;2023-06-14T13:34:23;6.70;;;3.90;;
4583;SDS011;2304;47.606;12.186;2023-06-14T13:39:25;6.10;;;3.90;;
4583;SDS011;2304;47.606;12.186;2023-06-14T13:44:27;4.70;;;3.37;;
4583;SDS011;2304;47.606;12.186;2023-06-14T13:49:30;6.00;;;3.90;;
4583;SDS011;2304;47.606;12.186;2023-06-14T13:54:32;6.00;;;4.03;;
4583;SDS011;2304;47.606;12.186;2023-06-14T13:59:34;9.77;;;4.20;;
4583;SDS011;2304;47.606;12.186;2023-06-14T14:04:37;6.57;;;3.80;;
4583;SDS011;2304;47.606;12.186;2023-06-14T14:09:39;5.80;;;3.60;;
4583;SDS011;2304;47.606;12.186;2023-06-14T14:14:42;6.03;;;3.90;;
4583;SDS011;2304;47.606;12.186;2023-06-14T14:19:46;6.23;;;3.90;;
4583;SDS011;2304;47.606;12.186;2023-06-14T14:24:48;7.20;;;4.33;;
4583;SDS011;2304;47.606;12.186;2023-06-14T14:29:50;5.37;;;3.77;;
4583;SDS011;2304;47.606;12.186;2023-06-14T14:34:53;10.70;;;4.00;;
4583;SDS011;2304;47.606;12.186;2023-06-14T14:39:55;6.00;;;4.40;;
4583;SDS011;2304;47.606;12.186;2023-06-14T14:44:57;5.63;;;4.00;;
4583;SDS011;2304;47.606;12.186;2023-06-14T14:50:00;6.97;;;4.47;;
4583;SDS011;2304;47.606;12.186;2023-06-14T14:55:02;6.27;;;4.00;;
4583;SDS011;2304;47.606;12.186;2023-06-14T15:00:05;4.87;;;3.97;;
4583;SDS011;2304;47.606;12.186;2023-06-14T15:05:09;5.10;;;3.90;;
4583;SDS011;2304;47.606;12.186;2023-06-14T15:10:11;5.13;;;3.70;;
4583;SDS011;2304;47.606;12.186;2023-06-14T15:15:13;5.53;;;3.87;;
4583;SDS011;2304;47.606;12.186;2023-06-14T15:20:16;6.80;;;3.90;;
4583;SDS011;2304;47.606;12.186;2023-06-14T15:25:18;8.77;;;4.60;;
4583;SDS011;2304;47.606;12.186;2023-06-14T15:30:21;5.67;;;3.80;;
4583;SDS011;2304;47.606;12.186;2023-06-14T15:35:25;6.07;;;4.00;;
4583;SDS011;2304;47.606;12.186;2023-06-14T15:40:29;6.43;;;4.00;;
4583;SDS011;2304;47.606;12.186;2023-06-14T15:45:30;7.03;;;4.23;;
4583;SDS011;2304;47.606;12.186;2023-06-14T15:50:34;5.47;;;4.47;;
4583;SDS011;2304;47.606;12.186;2023-06-14T15:55:36;8.23;;;3.90;;
4583;SDS011;2304;47.606;12.186;2023-06-14T16:00:38;4.57;;;3.60;;
4583;SDS011;2304;47.606;12.186;2023-06-14T16:05:41;7.33;;;3.90;;
4583;SDS011;2304;47.606;12.186;2023-06-14T16:10:43;7.53;;;3.80;;
4583;SDS011;2304;47.606;12.186;2023-06-14T16:15:45;5.20;;;3.93;;
4583;SDS011;2304;47.606;12.186;2023-06-14T16:20:48;5.77;;;4.20;;
4583;SDS011;2304;47.606;12.186;2023-06-14T16:25:50;5.60;;;4.40;;
4583;SDS011;2304;47.606;12.186;2023-06-14T16:30:52;8.37;;;3.90;;
4583;SDS011;2304;47.606;12.186;2023-06-14T16:35:55;6.83;;;3.90;;
4583;SDS011;2304;47.606;12.186;2023-06-14T16:40:57;5.03;;;4.00;;
4583;SDS011;2304;47.606;12.186;2023-06-14T16:45:59;6.53;;;4.13;;
4583;SDS011;2304;47.606;12.186;2023-06-14T16:51:02;5.23;;;4.00;;
4583;SDS011;2304;47.606;12.186;2023-06-14T16:56:05;6.23;;;4.43;;
4583;SDS011;2304;47.606;12.186;2023-06-14T17:01:07;4.90;;;3.90;;
4583;SDS011;2304;47.606;12.186;2023-06-14T17:06:10;5.07;;;3.60;;
4583;SDS011;2304;47.606;12.186;2023-06-14T17:11:12;4.83;;;3.70;;
4583;SDS011;2304;47.606;12.186;2023-06-14T17:16:15;5.60;;;3.60;;
4583;SDS011;2304;47.606;12.186;2023-06-14T17:21:18;8.53;;;4.17;;
4583;SDS011;2304;47.606;12.186;2023-06-14T17:26:20;8.87;;;4.57;;
4583;SDS011;2304;47.606;12.186;2023-06-14T17:31:21;8.13;;;5.00;;
4583;SDS011;2304;47.606;12.186;2023-06-14T17:36:25;8.17;;;4.43;;
4583;SDS011;2304;47.606;12.186;2023-06-14T17:41:26;5.53;;;4.10;;
4583;SDS011;2304;47.606;12.186;2023-06-14T17:46:30;6.50;;;4.30;;
4583;SDS011;2304;47.606;12.186;2023-06-14T17:51:33;5.43;;;4.33;;
4583;SDS011;2304;47.606;12.186;2023-06-14T17:56:35;4.70;;;4.00;;
4583;SDS011;2304;47.606;12.186;2023-06-14T18:01:36;6.50;;;3.90;;
4583;SDS011;2304;47.606;12.186;2023-06-14T18:06:40;5.47;;;3.83;;
4583;SDS011;2304;47.606;12.186;2023-06-14T18:11:41;6.60;;;4.37;;
4583;SDS011;2304;47.606;12.186;2023-06-14T18:16:43;7.17;;;4.10;;
4583;SDS011;2304;47.606;12.186;2023-06-14T18:21:47;7.20;;;4.30;;
4583;SDS011;2304;47.606;12.186;2023-06-14T18:26:49;5.87;;;4.20;;
4583;SDS011;2304;47.606;12.186;2023-06-14T18:31:51;5.43;;;4.00;;
4583;SDS011;2304;47.606;12.186;2023-06-14T18:36:54;8.27;;;4.20;;
4583;SDS011;2304;47.606;12.186;2023-06-14T18:41:57;5.77;;;4.20;;
4583;SDS011;2304;47.606;12.186;2023-06-14T18:47:00;8.37;;;4.60;;
4583;SDS011;2304;47.606;12.186;2023-06-14T18:52:03;7.10;;;4.43;;
4583;SDS011;2304;47.606;12.186;2023-06-14T18:57:06;7.50;;;4.60;;
4583;SDS011;2304;47.606;12.186;2023-06-14T19:02:09;5.30;;;4.20;;
4583;SDS011;2304;47.606;12.186;2023-06-14T19:07:12;7.60;;;4.50;;
4583;SDS011;2304;47.606;12.186;2023-06-14T19:12:14;7.20;;;4.00;;
4583;SDS011;2304;47.606;12.186;2023-06-14T19:17:16;6.13;;;4.33;;
4583;SDS011;2304;47.606;12.186;2023-06-14T19:22:19;6.43;;;3.67;;
4583;SDS011;2304;47.606;12.186;2023-06-14T19:27:21;8.37;;;3.90;;
4583;SDS011;2304;47.606;12.186;2023-06-14T19:32:22;5.27;;;4.33;;
4583;SDS011;2304;47.606;12.186;2023-06-14T19:37:26;7.13;;;4.30;;
4583;SDS011;2304;47.606;12.186;2023-06-14T19:42:28;5.87;;;4.00;;
4583;SDS011;2304;47.606;12.186;2023-06-14T19:47:29;4.63;;;3.80;;
4583;SDS011;2304;47.606;12.186;2023-06-14T19:52:33;8.40;;;4.50;;
4583;SDS011;2304;47.606;12.186;2023-06-14T19:57:35;5.50;;;3.90;;
4583;SDS011;2304;47.606;12.186;2023-06-14T20:02:37;7.13;;;4.00;;
4583;SDS011;2304;47.606;12.186;2023-06-14T20:07:40;8.40;;;4.20;;
4583;SDS011;2304;47.606;12.186;2023-06-14T20:12:42;5.57;;;3.77;;
4583;SDS011;2304;47.606;12.186;2023-06-14T20:17:44;5.50;;;3.97;;
4583;SDS011;2304;47.606;12.186;2023-06-14T20:22:47;9.10;;;3.87;;
4583;SDS011;2304;47.606;12.186;2023-06-14T20:27:49;5.20;;;3.63;;
4583;SDS011;2304;47.606;12.186;2023-06-14T20:32:51;6.53;;;4.20;;
4583;SDS011;2304;47.606;12.186;2023-06-14T20:37:54;8.57;;;4.00;;
4583;SDS011;2304;47.606;12.186;2023-06-14T20:42:56;6.50;;;4.70;;
4583;SDS011;2304;47.606;12.186;2023-06-14T20:48:01;5.97;;;4.33;;
4583;SDS011;2304;47.606;12.186;2023-06-14T20:53:04;5.60;;;4.00;;
4583;SDS011;2304;47.606;12.186;2023-06-14T20:58:06;5.60;;;4.00;;
4583;SDS011;2304;47.606;12.186;2023-06-14T21:03:08;13.30;;;4.50;;
4583;SDS011;2304;47.606;12.186;2023-06-14T21:08:11;5.10;;;4.17;;
4583;SDS011;2304;47.606;12.186;2023-06-14T21:13:13;7.40;;;4.10;;
4583;SDS011;2304;47.606;12.186;2023-06-14T21:18:15;7.03;;;4.47;;
4583;SDS011;2304;47.606;12.186;2023-06-14T21:23:19;7.83;;;4.40;;
4583;SDS011;2304;47.606;12.186;2023-06-14T21:28:21;6.13;;;4.00;;
4583;SDS011;2304;47.606;12.186;2023-06-14T21:33:23;7.73;;;4.30;;
4583;SDS011;2304;47.606;12.186;2023-06-14T21:38:26;5.60;;;3.90;;
4583;SDS011;2304;47.606;12.186;2023-06-14T21:43:29;7.47;;;4.53;;
4583;SDS011;2304;47.606;12.186;2023-06-14T21:48:31;9.20;;;4.13;;
4583;SDS011;2304;47.606;12.186;2023-06-14T21:53:34;7.20;;;4.10;;
4583;SDS011;2304;47.606;12.186;2023-06-14T21:58:36;8.07;;;4.00;;
4583;SDS011;2304;47.606;12.186;2023-06-14T22:03:38;5.77;;;4.33;;
4583;SDS011;2304;47.606;12.186;2023-06-14T22:08:41;5.70;;;4.10;;
4583;SDS011;2304;47.606;12.186;2023-06-14T22:13:42;5.60;;;3.93;;
4583;SDS011;2304;47.606;12.186;2023-06-14T22:18:44;9.40;;;4.77;;
4583;SDS011;2304;47.606;12.186;2023-06-14T22:23:47;6.43;;;4.07;;
4583;SDS011;2304;47.606;12.186;2023-06-14T22:28:49;5.00;;;3.80;;
4583;SDS011;2304;47.606;12.186;2023-06-14T22:33:51;4.57;;;3.80;;
4583;SDS011;2304;47.606;12.186;2023-06-14T22:38:54;6.97;;;5.00;;
4583;SDS011;2304;47.606;12.186;2023-06-14T22:43:57;7.37;;;4.23;;
4583;SDS011;2304;47.606;12.186;2023-06-14T22:48:59;6.60;;;4.37;;
4583;SDS011;2304;47.606;12.186;2023-06-14T22:54:03;7.97;;;4.50;;
4583;SDS011;2304;47.606;12.186;2023-06-14T22:59:05;7.13;;;5.17;;
4583;SDS011;2304;47.606;12.186;2023-06-14T23:04:07;6.40;;;4.10;;
4583;SDS011;2304;47.606;12.186;2023-06-14T23:09:11;5.03;;;4.33;;
4583;SDS011;2304;47.606;12.186;2023-06-14T23:14:12;6.80;;;4.30;;
4583;SDS011;2304;47.606;12.186;2023-06-14T23:19:14;5.63;;;4.30;;
4583;SDS011;2304;47.606;12.186;2023-06-14T23:24:19;6.00;;;4.10;;
4583;SDS011;2304;47.606;12.186;2023-06-14T23:29:21;5.40;;;4.17;;
4583;SDS011;2304;47.606;12.186;2023-06-14T23:34:23;6.27;;;4.30;;
4583;SDS011;2304;47.606;12.186;2023-06-14T23:39:27;9.40;;;4.77;;
4583;SDS011;2304;47.606;12.186;2023-06-14T23:44:29;9.40;;;4.57;;
4583;SDS011;2304;47.606;12.186;2023-06-14T23:49:36;6.73;;;4.40;;
4583;SDS011;2304;47.606;12.186;2023-06-14T23:54:39;7.03;;;4.70;;
4583;SDS011;2304;47.606;12.186;2023-06-14T23:59:46;9.80;;;4.90;;
